sensor_id;sensor_type;location;lat;lon;timestamp;temperature;humidity
64961;SHT31;51487;52.266;10.542;2023-05-10T00:01:23;13.97;65.30
64961;SHT31;51487;52.266;10.542;2023-05-10T00:03:49;13.99;65.33
64961;SHT31;51487;52.266;10.542;2023-05-10T00:06:15;14.02;65.28
64961;SHT31;51487;52.266;10.542;2023-05-10T00:08:41;14.02;65.46
64961;SHT31;51487;52.266;10.542;2023-05-10T00:11:06;13.99;65.42
64961;SHT31;51487;52.266;10.542;2023-05-10T00:13:32;13.93;65.57
64961;SHT31;51487;52.266;10.542;2023-05-10T00:15:57;13.87;65.65
64961;SHT31;51487;52.266;10.542;2023-05-10T00:18:23;13.89;65.56
64961;SHT31;51487;52.266;10.542;2023-05-10T00:20:48;13.87;65.64
64961;SHT31;51487;52.266;10.542;2023-05-10T00:23:14;13.87;65.85
64961;SHT31;51487;52.266;10.542;2023-05-10T00:25:40;13.79;65.88
64961;SHT31;51487;52.266;10.542;2023-05-10T00:28:05;13.86;65.76
64961;SHT31;51487;52.266;10.542;2023-05-10T00:30:31;13.89;65.66
64961;SHT31;51487;52.266;10.542;2023-05-10T00:32:56;13.91;66.08
64961;SHT31;51487;52.266;10.542;2023-05-10T00:35:22;13.80;65.96
64961;SHT31;51487;52.266;10.542;2023-05-10T00:37:48;13.80;66.04
64961;SHT31;51487;52.266;10.542;2023-05-10T00:40:14;13.80;66.09
64961;SHT31;51487;52.266;10.542;2023-05-10T00:42:39;13.79;66.03
64961;SHT31;51487;52.266;10.542;2023-05-10T00:45:06;13.76;66.24
64961;SHT31;51487;52.266;10.542;2023-05-10T00:47:32;13.72;66.21
64961;SHT31;51487;52.266;10.542;2023-05-10T00:49:59;13.73;66.26
64961;SHT31;51487;52.266;10.542;2023-05-10T00:52:27;13.75;66.14
64961;SHT31;51487;52.266;10.542;2023-05-10T00:54:54;13.72;66.36
64961;SHT31;51487;52.266;10.542;2023-05-10T00:57:21;13.67;66.42
64961;SHT31;51487;52.266;10.542;2023-05-10T00:59:47;13.66;66.42
64961;SHT31;51487;52.266;10.542;2023-05-10T01:02:13;13.66;66.49
64961;SHT31;51487;52.266;10.542;2023-05-10T01:04:39;13.65;66.62
64961;SHT31;51487;52.266;10.542;2023-05-10T01:07:06;13.65;66.38
64961;SHT31;51487;52.266;10.542;2023-05-10T01:09:32;13.63;66.58
64961;SHT31;51487;52.266;10.542;2023-05-10T01:11:59;13.63;66.54
64961;SHT31;51487;52.266;10.542;2023-05-10T01:14:26;13.67;66.57
64961;SHT31;51487;52.266;10.542;2023-05-10T01:16:52;13.59;66.72
64961;SHT31;51487;52.266;10.542;2023-05-10T01:19:22;13.58;66.73
64961;SHT31;51487;52.266;10.542;2023-05-10T01:22:32;13.58;66.66
64961;SHT31;51487;52.266;10.542;2023-05-10T01:25:14;13.54;66.80
64961;SHT31;51487;52.266;10.542;2023-05-10T01:33:29;13.55;66.78
64961;SHT31;51487;52.266;10.542;2023-05-10T01:36:11;13.52;66.74
64961;SHT31;51487;52.266;10.542;2023-05-10T01:38:47;13.49;66.96
64961;SHT31;51487;52.266;10.542;2023-05-10T01:41:43;13.51;66.86
64961;SHT31;51487;52.266;10.542;2023-05-10T01:44:35;13.48;66.99
64961;SHT31;51487;52.266;10.542;2023-05-10T01:47:43;13.44;67.19
64961;SHT31;51487;52.266;10.542;2023-05-10T01:50:21;13.38;67.32
64961;SHT31;51487;52.266;10.542;2023-05-10T01:52:53;13.41;67.31
64961;SHT31;51487;52.266;10.542;2023-05-10T01:55:22;13.41;67.21
64961;SHT31;51487;52.266;10.542;2023-05-10T01:58:07;13.34;67.37
64961;SHT31;51487;52.266;10.542;2023-05-10T02:00:35;13.37;67.55
64961;SHT31;51487;52.266;10.542;2023-05-10T02:03:06;13.31;67.64
64961;SHT31;51487;52.266;10.542;2023-05-10T02:05:34;13.25;67.66
64961;SHT31;51487;52.266;10.542;2023-05-10T02:08:03;13.25;67.83
64961;SHT31;51487;52.266;10.542;2023-05-10T02:10:34;13.19;67.97
64961;SHT31;51487;52.266;10.542;2023-05-10T02:13:02;13.19;68.11
64961;SHT31;51487;52.266;10.542;2023-05-10T02:15:29;13.15;68.10
64961;SHT31;51487;52.266;10.542;2023-05-10T02:17:57;13.14;68.20
64961;SHT31;51487;52.266;10.542;2023-05-10T02:20:25;13.15;68.17
64961;SHT31;51487;52.266;10.542;2023-05-10T02:22:54;13.22;68.09
64961;SHT31;51487;52.266;10.542;2023-05-10T02:25:22;13.17;68.24
64961;SHT31;51487;52.266;10.542;2023-05-10T02:27:49;13.12;68.23
64961;SHT31;51487;52.266;10.542;2023-05-10T02:30:18;13.14;68.48
64961;SHT31;51487;52.266;10.542;2023-05-10T02:32:45;13.07;68.44
64961;SHT31;51487;52.266;10.542;2023-05-10T02:35:12;13.10;68.65
64961;SHT31;51487;52.266;10.542;2023-05-10T02:37:39;13.07;68.52
64961;SHT31;51487;52.266;10.542;2023-05-10T02:40:07;13.08;68.46
64961;SHT31;51487;52.266;10.542;2023-05-10T02:42:37;13.11;68.53
64961;SHT31;51487;52.266;10.542;2023-05-10T02:45:10;13.06;68.79
64961;SHT31;51487;52.266;10.542;2023-05-10T02:47:37;13.08;68.66
64961;SHT31;51487;52.266;10.542;2023-05-10T02:50:03;13.11;68.63
64961;SHT31;51487;52.266;10.542;2023-05-10T02:52:39;13.12;68.62
64961;SHT31;51487;52.266;10.542;2023-05-10T02:55:07;13.15;68.56
64961;SHT31;51487;52.266;10.542;2023-05-10T02:57:35;13.14;68.53
64961;SHT31;51487;52.266;10.542;2023-05-10T03:00:04;13.17;68.48
64961;SHT31;51487;52.266;10.542;2023-05-10T03:02:30;13.12;68.59
64961;SHT31;51487;52.266;10.542;2023-05-10T03:04:56;13.12;68.68
64961;SHT31;51487;52.266;10.542;2023-05-10T03:07:22;13.14;68.71
64961;SHT31;51487;52.266;10.542;2023-05-10T03:09:49;13.12;68.82
64961;SHT31;51487;52.266;10.542;2023-05-10T03:15:28;13.10;69.00
64961;SHT31;51487;52.266;10.542;2023-05-10T03:18:22;13.18;68.86
64961;SHT31;51487;52.266;10.542;2023-05-10T03:20:51;13.17;69.19
64961;SHT31;51487;52.266;10.542;2023-05-10T03:23:27;13.15;68.86
64961;SHT31;51487;52.266;10.542;2023-05-10T03:25:52;13.11;69.33
64961;SHT31;51487;52.266;10.542;2023-05-10T03:28:21;13.06;69.15
64961;SHT31;51487;52.266;10.542;2023-05-10T03:30:47;13.03;69.42
64961;SHT31;51487;52.266;10.542;2023-05-10T03:33:13;13.07;69.18
64961;SHT31;51487;52.266;10.542;2023-05-10T03:35:39;12.91;69.64
64961;SHT31;51487;52.266;10.542;2023-05-10T03:38:05;12.98;69.50
64961;SHT31;51487;52.266;10.542;2023-05-10T03:40:30;13.04;69.27
64961;SHT31;51487;52.266;10.542;2023-05-10T03:42:58;13.01;69.50
64961;SHT31;51487;52.266;10.542;2023-05-10T03:45:24;13.04;69.40
64961;SHT31;51487;52.266;10.542;2023-05-10T03:47:50;13.04;69.71
64961;SHT31;51487;52.266;10.542;2023-05-10T03:50:15;12.93;69.66
64961;SHT31;51487;52.266;10.542;2023-05-10T03:52:41;12.97;69.84
64961;SHT31;51487;52.266;10.542;2023-05-10T03:55:07;12.98;69.85
64961;SHT31;51487;52.266;10.542;2023-05-10T03:57:33;12.97;70.02
64961;SHT31;51487;52.266;10.542;2023-05-10T03:59:59;12.91;70.05
64961;SHT31;51487;52.266;10.542;2023-05-10T04:02:25;12.97;70.01
64961;SHT31;51487;52.266;10.542;2023-05-10T04:04:50;12.97;69.91
64961;SHT31;51487;52.266;10.542;2023-05-10T04:07:16;12.86;70.15
64961;SHT31;51487;52.266;10.542;2023-05-10T04:09:41;12.90;70.11
64961;SHT31;51487;52.266;10.542;2023-05-10T04:12:07;12.90;70.35
64961;SHT31;51487;52.266;10.542;2023-05-10T04:14:32;12.97;70.21
64961;SHT31;51487;52.266;10.542;2023-05-10T04:16:58;12.93;70.45
64961;SHT31;51487;52.266;10.542;2023-05-10T04:19:24;12.93;70.46
64961;SHT31;51487;52.266;10.542;2023-05-10T04:21:49;12.91;70.42
64961;SHT31;51487;52.266;10.542;2023-05-10T04:24:15;12.91;70.76
64961;SHT31;51487;52.266;10.542;2023-05-10T04:26:40;12.94;70.53
64961;SHT31;51487;52.266;10.542;2023-05-10T04:29:06;12.98;70.75
64961;SHT31;51487;52.266;10.542;2023-05-10T04:31:32;12.98;70.81
64961;SHT31;51487;52.266;10.542;2023-05-10T04:33:57;13.06;70.95
64961;SHT31;51487;52.266;10.542;2023-05-10T04:36:23;13.06;70.78
64961;SHT31;51487;52.266;10.542;2023-05-10T04:38:48;13.07;70.85
64961;SHT31;51487;52.266;10.542;2023-05-10T04:41:14;13.07;70.94
64961;SHT31;51487;52.266;10.542;2023-05-10T04:43:39;13.07;71.02
64961;SHT31;51487;52.266;10.542;2023-05-10T04:46:05;13.04;70.97
64961;SHT31;51487;52.266;10.542;2023-05-10T04:48:32;13.03;71.24
64961;SHT31;51487;52.266;10.542;2023-05-10T04:50:58;13.00;71.28
64961;SHT31;51487;52.266;10.542;2023-05-10T04:53:23;13.04;71.15
64961;SHT31;51487;52.266;10.542;2023-05-10T04:55:49;13.10;70.96
64961;SHT31;51487;52.266;10.542;2023-05-10T04:58:14;12.98;71.21
64961;SHT31;51487;52.266;10.542;2023-05-10T05:00:40;13.00;71.24
64961;SHT31;51487;52.266;10.542;2023-05-10T05:03:05;13.04;71.29
64961;SHT31;51487;52.266;10.542;2023-05-10T05:05:31;12.98;71.80
64961;SHT31;51487;52.266;10.542;2023-05-10T05:07:57;13.00;71.49
64961;SHT31;51487;52.266;10.542;2023-05-10T05:10:22;12.98;71.58
64961;SHT31;51487;52.266;10.542;2023-05-10T05:12:48;13.10;71.28
64961;SHT31;51487;52.266;10.542;2023-05-10T05:15:13;13.00;71.61
64961;SHT31;51487;52.266;10.542;2023-05-10T05:17:40;12.98;71.68
64961;SHT31;51487;52.266;10.542;2023-05-10T05:20:06;13.00;71.73
64961;SHT31;51487;52.266;10.542;2023-05-10T05:22:32;12.93;72.01
64961;SHT31;51487;52.266;10.542;2023-05-10T05:24:58;12.96;72.13
64961;SHT31;51487;52.266;10.542;2023-05-10T05:27:24;13.04;71.86
64961;SHT31;51487;52.266;10.542;2023-05-10T05:29:55;13.00;72.28
64961;SHT31;51487;52.266;10.542;2023-05-10T05:32:23;13.03;72.72
64961;SHT31;51487;52.266;10.542;2023-05-10T05:34:49;13.01;73.07
64961;SHT31;51487;52.266;10.542;2023-05-10T05:37:20;12.98;73.11
64961;SHT31;51487;52.266;10.542;2023-05-10T05:39:46;12.94;73.21
64961;SHT31;51487;52.266;10.542;2023-05-10T05:42:13;12.98;73.72
64961;SHT31;51487;52.266;10.542;2023-05-10T05:44:39;12.96;73.79
64961;SHT31;51487;52.266;10.542;2023-05-10T05:47:06;12.93;74.40
64961;SHT31;51487;52.266;10.542;2023-05-10T05:49:32;12.97;73.89
64961;SHT31;51487;52.266;10.542;2023-05-10T05:52:02;12.93;74.53
64961;SHT31;51487;52.266;10.542;2023-05-10T05:54:29;13.04;74.17
64961;SHT31;51487;52.266;10.542;2023-05-10T05:56:56;13.19;74.34
64961;SHT31;51487;52.266;10.542;2023-05-10T05:59:22;13.21;74.00
64961;SHT31;51487;52.266;10.542;2023-05-10T06:01:48;13.14;75.14
64961;SHT31;51487;52.266;10.542;2023-05-10T06:04:14;13.18;74.66
64961;SHT31;51487;52.266;10.542;2023-05-10T06:06:40;13.25;74.85
64961;SHT31;51487;52.266;10.542;2023-05-10T06:09:05;13.24;75.26
64961;SHT31;51487;52.266;10.542;2023-05-10T06:11:31;13.32;74.99
64961;SHT31;51487;52.266;10.542;2023-05-10T06:14:00;13.41;75.47
64961;SHT31;51487;52.266;10.542;2023-05-10T06:16:27;13.35;75.39
64961;SHT31;51487;52.266;10.542;2023-05-10T06:18:53;13.31;75.68
64961;SHT31;51487;52.266;10.542;2023-05-10T06:21:19;13.39;75.38
64961;SHT31;51487;52.266;10.542;2023-05-10T06:23:44;13.56;75.09
64961;SHT31;51487;52.266;10.542;2023-05-10T06:26:10;13.65;74.80
64961;SHT31;51487;52.266;10.542;2023-05-10T06:28:36;13.70;75.25
64961;SHT31;51487;52.266;10.542;2023-05-10T06:31:04;13.89;74.81
64961;SHT31;51487;52.266;10.542;2023-05-10T06:33:30;13.95;74.93
64961;SHT31;51487;52.266;10.542;2023-05-10T06:35:56;14.00;74.06
64961;SHT31;51487;52.266;10.542;2023-05-10T06:38:22;13.90;74.21
64961;SHT31;51487;52.266;10.542;2023-05-10T06:40:48;13.97;74.41
64961;SHT31;51487;52.266;10.542;2023-05-10T06:43:14;13.96;74.17
64961;SHT31;51487;52.266;10.542;2023-05-10T06:45:39;13.95;74.17
64961;SHT31;51487;52.266;10.542;2023-05-10T06:48:06;13.87;74.81
64961;SHT31;51487;52.266;10.542;2023-05-10T06:50:32;13.80;75.27
64961;SHT31;51487;52.266;10.542;2023-05-10T06:52:58;13.99;75.50
64961;SHT31;51487;52.266;10.542;2023-05-10T06:55:24;13.90;76.76
64961;SHT31;51487;52.266;10.542;2023-05-10T06:57:50;13.85;77.76
64961;SHT31;51487;52.266;10.542;2023-05-10T07:00:17;13.75;78.49
64961;SHT31;51487;52.266;10.542;2023-05-10T07:02:43;13.62;79.79
64961;SHT31;51487;52.266;10.542;2023-05-10T07:05:09;13.69;79.76
64961;SHT31;51487;52.266;10.542;2023-05-10T07:07:35;13.56;81.67
64961;SHT31;51487;52.266;10.542;2023-05-10T07:10:01;13.61;81.82
64961;SHT31;51487;52.266;10.542;2023-05-10T07:12:27;13.82;82.51
64961;SHT31;51487;52.266;10.542;2023-05-10T07:14:53;13.83;82.42
64961;SHT31;51487;52.266;10.542;2023-05-10T07:17:19;13.85;83.20
64961;SHT31;51487;52.266;10.542;2023-05-10T07:19:44;13.87;82.96
64961;SHT31;51487;52.266;10.542;2023-05-10T07:22:10;13.96;83.12
64961;SHT31;51487;52.266;10.542;2023-05-10T07:24:35;14.05;83.32
64961;SHT31;51487;52.266;10.542;2023-05-10T07:27:01;13.87;83.34
64961;SHT31;51487;52.266;10.542;2023-05-10T07:29:27;13.85;83.99
64961;SHT31;51487;52.266;10.542;2023-05-10T07:31:52;13.83;84.07
64961;SHT31;51487;52.266;10.542;2023-05-10T07:34:18;13.73;84.59
64961;SHT31;51487;52.266;10.542;2023-05-10T07:36:44;13.77;84.82
64961;SHT31;51487;52.266;10.542;2023-05-10T07:39:09;13.97;85.30
64961;SHT31;51487;52.266;10.542;2023-05-10T07:41:35;13.99;84.00
64961;SHT31;51487;52.266;10.542;2023-05-10T07:44:03;14.00;84.92
64961;SHT31;51487;52.266;10.542;2023-05-10T07:46:29;13.95;85.70
64961;SHT31;51487;52.266;10.542;2023-05-10T07:48:55;13.99;85.21
64961;SHT31;51487;52.266;10.542;2023-05-10T07:51:21;13.96;85.65
64961;SHT31;51487;52.266;10.542;2023-05-10T07:53:46;13.82;86.35
64961;SHT31;51487;52.266;10.542;2023-05-10T07:56:30;13.90;86.84
64961;SHT31;51487;52.266;10.542;2023-05-10T07:59:01;14.05;86.26
64961;SHT31;51487;52.266;10.542;2023-05-10T08:01:31;14.05;86.91
64961;SHT31;51487;52.266;10.542;2023-05-10T08:03:57;14.02;87.04
64961;SHT31;51487;52.266;10.542;2023-05-10T08:06:23;14.13;86.60
64961;SHT31;51487;52.266;10.542;2023-05-10T08:08:49;14.31;86.24
64961;SHT31;51487;52.266;10.542;2023-05-10T08:11:19;14.35;86.82
64961;SHT31;51487;52.266;10.542;2023-05-10T08:13:47;14.42;86.67
64961;SHT31;51487;52.266;10.542;2023-05-10T08:16:13;14.33;87.69
64961;SHT31;51487;52.266;10.542;2023-05-10T08:18:39;14.17;88.46
64961;SHT31;51487;52.266;10.542;2023-05-10T08:21:05;14.07;88.05
64961;SHT31;51487;52.266;10.542;2023-05-10T08:23:31;14.17;88.17
64961;SHT31;51487;52.266;10.542;2023-05-10T08:25:57;14.18;88.85
64961;SHT31;51487;52.266;10.542;2023-05-10T08:28:22;14.14;89.74
64961;SHT31;51487;52.266;10.542;2023-05-10T08:30:49;14.13;89.35
64961;SHT31;51487;52.266;10.542;2023-05-10T08:33:15;14.13;89.46
64961;SHT31;51487;52.266;10.542;2023-05-10T08:35:41;14.24;89.71
64961;SHT31;51487;52.266;10.542;2023-05-10T08:38:07;14.21;90.19
64961;SHT31;51487;52.266;10.542;2023-05-10T08:40:32;14.21;89.21
64961;SHT31;51487;52.266;10.542;2023-05-10T08:43:05;14.23;89.48
64961;SHT31;51487;52.266;10.542;2023-05-10T08:45:37;14.23;89.85
64961;SHT31;51487;52.266;10.542;2023-05-10T08:48:06;14.23;89.95
64961;SHT31;51487;52.266;10.542;2023-05-10T08:50:36;14.35;89.57
64961;SHT31;51487;52.266;10.542;2023-05-10T08:53:06;14.42;90.09
64961;SHT31;51487;52.266;10.542;2023-05-10T08:55:34;14.57;90.12
64961;SHT31;51487;52.266;10.542;2023-05-10T08:58:02;14.69;89.54
64961;SHT31;51487;52.266;10.542;2023-05-10T09:00:29;14.67;90.31
64961;SHT31;51487;52.266;10.542;2023-05-10T09:02:55;14.60;89.84
64961;SHT31;51487;52.266;10.542;2023-05-10T09:05:22;14.55;90.01
64961;SHT31;51487;52.266;10.542;2023-05-10T09:07:47;14.61;89.93
64961;SHT31;51487;52.266;10.542;2023-05-10T09:10:16;14.60;90.01
64961;SHT31;51487;52.266;10.542;2023-05-10T09:12:44;14.67;89.95
64961;SHT31;51487;52.266;10.542;2023-05-10T09:15:15;14.71;90.30
64961;SHT31;51487;52.266;10.542;2023-05-10T09:17:43;14.75;90.12
64961;SHT31;51487;52.266;10.542;2023-05-10T09:20:09;14.49;91.17
64961;SHT31;51487;52.266;10.542;2023-05-10T09:22:35;14.48;91.55
64961;SHT31;51487;52.266;10.542;2023-05-10T09:25:12;14.51;92.08
64961;SHT31;51487;52.266;10.542;2023-05-10T09:27:40;14.67;92.03
64961;SHT31;51487;52.266;10.542;2023-05-10T09:30:07;14.65;92.12
64961;SHT31;51487;52.266;10.542;2023-05-10T09:32:41;14.57;93.07
64961;SHT31;51487;52.266;10.542;2023-05-10T09:35:08;14.58;93.09
64961;SHT31;51487;52.266;10.542;2023-05-10T09:37:34;14.64;93.47
64961;SHT31;51487;52.266;10.542;2023-05-10T09:40:00;14.72;92.72
64961;SHT31;51487;52.266;10.542;2023-05-10T09:42:25;14.76;93.04
64961;SHT31;51487;52.266;10.542;2023-05-10T09:44:51;14.79;93.34
64961;SHT31;51487;52.266;10.542;2023-05-10T09:47:18;14.91;93.15
64961;SHT31;51487;52.266;10.542;2023-05-10T09:49:53;14.85;93.61
64961;SHT31;51487;52.266;10.542;2023-05-10T09:52:20;14.95;93.31
64961;SHT31;51487;52.266;10.542;2023-05-10T09:54:53;14.86;93.03
64961;SHT31;51487;52.266;10.542;2023-05-10T09:57:23;14.92;93.06
64961;SHT31;51487;52.266;10.542;2023-05-10T09:59:49;14.84;93.55
64961;SHT31;51487;52.266;10.542;2023-05-10T10:02:16;15.03;92.37
64961;SHT31;51487;52.266;10.542;2023-05-10T10:04:42;15.03;92.32
64961;SHT31;51487;52.266;10.542;2023-05-10T10:07:09;15.16;90.72
64961;SHT31;51487;52.266;10.542;2023-05-10T10:09:35;15.22;90.91
64961;SHT31;51487;52.266;10.542;2023-05-10T10:12:04;15.30;90.78
64961;SHT31;51487;52.266;10.542;2023-05-10T10:14:30;15.36;90.76
64961;SHT31;51487;52.266;10.542;2023-05-10T10:16:56;15.51;90.91
64961;SHT31;51487;52.266;10.542;2023-05-10T10:19:22;15.43;89.88
64961;SHT31;51487;52.266;10.542;2023-05-10T10:21:49;15.33;90.95
64961;SHT31;51487;52.266;10.542;2023-05-10T10:24:15;15.06;91.67
64961;SHT31;51487;52.266;10.542;2023-05-10T10:26:42;15.09;91.63
64961;SHT31;51487;52.266;10.542;2023-05-10T10:29:44;15.03;91.99
64961;SHT31;51487;52.266;10.542;2023-05-10T10:32:30;14.96;92.27
64961;SHT31;51487;52.266;10.542;2023-05-10T10:34:59;14.99;91.42
64961;SHT31;51487;52.266;10.542;2023-05-10T10:37:44;15.00;90.81
64961;SHT31;51487;52.266;10.542;2023-05-10T10:40:36;14.99;91.42
64961;SHT31;51487;52.266;10.542;2023-05-10T10:43:27;14.99;91.95
64961;SHT31;51487;52.266;10.542;2023-05-10T10:46:13;15.16;90.82
64961;SHT31;51487;52.266;10.542;2023-05-10T10:49:09;14.89;91.20
64961;SHT31;51487;52.266;10.542;2023-05-10T10:51:39;15.09;91.68
64961;SHT31;51487;52.266;10.542;2023-05-10T10:54:11;15.22;90.84
64961;SHT31;51487;52.266;10.542;2023-05-10T10:56:37;15.19;91.70
64961;SHT31;51487;52.266;10.542;2023-05-10T10:59:03;15.34;90.56
64961;SHT31;51487;52.266;10.542;2023-05-10T11:01:35;15.44;90.48
64961;SHT31;51487;52.266;10.542;2023-05-10T11:06:34;15.63;90.28
64961;SHT31;51487;52.266;10.542;2023-05-10T11:09:11;15.64;90.04
64961;SHT31;51487;52.266;10.542;2023-05-10T11:11:54;15.61;90.87
64961;SHT31;51487;52.266;10.542;2023-05-10T11:14:24;15.44;90.66
64961;SHT31;51487;52.266;10.542;2023-05-10T11:16:51;15.27;90.31
64961;SHT31;51487;52.266;10.542;2023-05-10T11:19:18;15.40;88.95
64961;SHT31;51487;52.266;10.542;2023-05-10T11:21:51;15.39;89.74
64961;SHT31;51487;52.266;10.542;2023-05-10T11:24:27;15.53;89.90
64961;SHT31;51487;52.266;10.542;2023-05-10T11:26:53;15.58;88.59
64961;SHT31;51487;52.266;10.542;2023-05-10T11:29:19;15.67;88.24
64961;SHT31;51487;52.266;10.542;2023-05-10T11:31:46;15.68;88.34
64961;SHT31;51487;52.266;10.542;2023-05-10T11:34:27;15.65;89.10
64961;SHT31;51487;52.266;10.542;2023-05-10T11:36:55;15.75;89.19
64961;SHT31;51487;52.266;10.542;2023-05-10T11:39:26;15.84;88.33
64961;SHT31;51487;52.266;10.542;2023-05-10T11:41:51;16.00;89.24
64961;SHT31;51487;52.266;10.542;2023-05-10T11:44:17;16.01;87.63
64961;SHT31;51487;52.266;10.542;2023-05-10T11:46:42;16.02;87.72
64961;SHT31;51487;52.266;10.542;2023-05-10T11:49:08;16.11;87.16
64961;SHT31;51487;52.266;10.542;2023-05-10T11:51:37;16.02;86.82
64961;SHT31;51487;52.266;10.542;2023-05-10T11:54:08;15.88;87.69
64961;SHT31;51487;52.266;10.542;2023-05-10T11:56:34;15.70;87.93
64961;SHT31;51487;52.266;10.542;2023-05-10T11:59:00;15.81;87.46
64961;SHT31;51487;52.266;10.542;2023-05-10T12:01:28;16.02;87.73
64961;SHT31;51487;52.266;10.542;2023-05-10T12:03:57;16.01;86.90
64961;SHT31;51487;52.266;10.542;2023-05-10T12:06:29;16.25;84.32
64961;SHT31;51487;52.266;10.542;2023-05-10T12:08:56;16.39;82.43
64961;SHT31;51487;52.266;10.542;2023-05-10T12:11:26;16.39;82.31
64961;SHT31;51487;52.266;10.542;2023-05-10T12:13:53;16.49;83.58
64961;SHT31;51487;52.266;10.542;2023-05-10T12:16:22;16.60;82.67
64961;SHT31;51487;52.266;10.542;2023-05-10T12:18:52;16.59;82.96
64961;SHT31;51487;52.266;10.542;2023-05-10T12:21:20;16.36;83.21
64961;SHT31;51487;52.266;10.542;2023-05-10T12:23:52;16.71;81.50
64961;SHT31;51487;52.266;10.542;2023-05-10T12:26:19;16.94;81.64
64961;SHT31;51487;52.266;10.542;2023-05-10T12:28:46;16.88;80.92
64961;SHT31;51487;52.266;10.542;2023-05-10T12:31:12;17.07;80.27
64961;SHT31;51487;52.266;10.542;2023-05-10T12:33:40;17.19;80.35
64961;SHT31;51487;52.266;10.542;2023-05-10T12:36:14;16.95;79.56
64961;SHT31;51487;52.266;10.542;2023-05-10T12:38:45;16.95;81.07
64961;SHT31;51487;52.266;10.542;2023-05-10T12:41:17;17.32;79.80
64961;SHT31;51487;52.266;10.542;2023-05-10T12:43:44;17.35;80.12
64961;SHT31;51487;52.266;10.542;2023-05-10T12:46:13;17.53;80.61
64961;SHT31;51487;52.266;10.542;2023-05-10T12:48:41;17.31;81.84
64961;SHT31;51487;52.266;10.542;2023-05-10T12:51:08;17.58;81.40
64961;SHT31;51487;52.266;10.542;2023-05-10T12:53:35;17.61;79.68
64961;SHT31;51487;52.266;10.542;2023-05-10T12:56:01;17.63;78.62
64961;SHT31;51487;52.266;10.542;2023-05-10T12:58:27;17.38;79.54
64961;SHT31;51487;52.266;10.542;2023-05-10T13:00:52;17.50;78.08
64961;SHT31;51487;52.266;10.542;2023-05-10T13:03:18;17.69;77.49
64961;SHT31;51487;52.266;10.542;2023-05-10T13:05:44;17.73;79.58
64961;SHT31;51487;52.266;10.542;2023-05-10T13:08:10;17.80;78.80
64961;SHT31;51487;52.266;10.542;2023-05-10T13:10:36;17.76;77.86
64961;SHT31;51487;52.266;10.542;2023-05-10T13:13:01;17.80;76.09
64961;SHT31;51487;52.266;10.542;2023-05-10T13:15:27;18.16;74.15
64961;SHT31;51487;52.266;10.542;2023-05-10T13:17:53;17.86;73.90
64961;SHT31;51487;52.266;10.542;2023-05-10T13:20:19;18.16;74.92
64961;SHT31;51487;52.266;10.542;2023-05-10T13:22:46;18.34;74.94
64961;SHT31;51487;52.266;10.542;2023-05-10T13:25:12;18.59;73.81
64961;SHT31;51487;52.266;10.542;2023-05-10T13:27:39;18.57;71.64
64961;SHT31;51487;52.266;10.542;2023-05-10T13:30:07;18.55;71.03
64961;SHT31;51487;52.266;10.542;2023-05-10T13:32:33;18.23;72.02
64961;SHT31;51487;52.266;10.542;2023-05-10T13:34:59;18.16;72.69
64961;SHT31;51487;52.266;10.542;2023-05-10T13:37:24;18.38;72.06
64961;SHT31;51487;52.266;10.542;2023-05-10T13:39:50;18.47;72.78
64961;SHT31;51487;52.266;10.542;2023-05-10T13:42:17;17.94;73.02
64961;SHT31;51487;52.266;10.542;2023-05-10T13:44:43;18.11;72.93
64961;SHT31;51487;52.266;10.542;2023-05-10T13:47:08;18.11;73.60
64961;SHT31;51487;52.266;10.542;2023-05-10T13:49:34;18.08;76.14
64961;SHT31;51487;52.266;10.542;2023-05-10T13:52:00;18.08;77.01
64961;SHT31;51487;52.266;10.542;2023-05-10T13:54:38;18.03;76.72
64961;SHT31;51487;52.266;10.542;2023-05-10T13:57:04;17.94;76.91
64961;SHT31;51487;52.266;10.542;2023-05-10T13:59:30;18.00;77.32
64961;SHT31;51487;52.266;10.542;2023-05-10T14:02:00;17.73;76.14
64961;SHT31;51487;52.266;10.542;2023-05-10T14:04:29;17.53;76.16
64961;SHT31;51487;52.266;10.542;2023-05-10T14:06:56;17.70;76.40
64961;SHT31;51487;52.266;10.542;2023-05-10T14:09:22;17.73;77.39
64961;SHT31;51487;52.266;10.542;2023-05-10T14:11:48;17.82;77.87
64961;SHT31;51487;52.266;10.542;2023-05-10T14:14:13;17.82;77.23
64961;SHT31;51487;52.266;10.542;2023-05-10T14:16:43;17.80;77.84
64961;SHT31;51487;52.266;10.542;2023-05-10T14:19:09;17.80;76.17
64961;SHT31;51487;52.266;10.542;2023-05-10T14:21:34;17.85;76.73
64961;SHT31;51487;52.266;10.542;2023-05-10T14:24:00;17.62;75.90
64961;SHT31;51487;52.266;10.542;2023-05-10T14:26:26;17.58;76.88
64961;SHT31;51487;52.266;10.542;2023-05-10T14:28:52;17.87;76.99
64961;SHT31;51487;52.266;10.542;2023-05-10T14:31:18;17.86;76.98
64961;SHT31;51487;52.266;10.542;2023-05-10T14:33:46;17.99;76.08
64961;SHT31;51487;52.266;10.542;2023-05-10T14:36:12;17.89;75.05
64961;SHT31;51487;52.266;10.542;2023-05-10T14:38:39;18.10;75.14
64961;SHT31;51487;52.266;10.542;2023-05-10T14:41:04;18.18;75.69
64961;SHT31;51487;52.266;10.542;2023-05-10T14:43:30;18.38;75.57
64961;SHT31;51487;52.266;10.542;2023-05-10T14:45:56;18.38;75.16
64961;SHT31;51487;52.266;10.542;2023-05-10T14:48:21;18.37;74.29
64961;SHT31;51487;52.266;10.542;2023-05-10T14:50:47;18.59;73.65
64961;SHT31;51487;52.266;10.542;2023-05-10T14:53:13;18.75;73.87
64961;SHT31;51487;52.266;10.542;2023-05-10T14:55:38;18.81;73.85
64961;SHT31;51487;52.266;10.542;2023-05-10T14:58:04;18.94;74.08
64961;SHT31;51487;52.266;10.542;2023-05-10T15:00:30;18.75;73.76
64961;SHT31;51487;52.266;10.542;2023-05-10T15:02:56;18.41;74.34
64961;SHT31;51487;52.266;10.542;2023-05-10T15:05:22;18.52;76.21
64961;SHT31;51487;52.266;10.542;2023-05-10T15:07:48;18.91;74.09
64961;SHT31;51487;52.266;10.542;2023-05-10T15:10:14;19.07;72.94
64961;SHT31;51487;52.266;10.542;2023-05-10T15:12:40;19.38;71.81
64961;SHT31;51487;52.266;10.542;2023-05-10T15:15:06;19.51;72.08
64961;SHT31;51487;52.266;10.542;2023-05-10T15:17:33;19.37;72.26
64961;SHT31;51487;52.266;10.542;2023-05-10T15:19:58;19.06;72.29
64961;SHT31;51487;52.266;10.542;2023-05-10T15:22:24;18.99;73.68
64961;SHT31;51487;52.266;10.542;2023-05-10T15:24:49;18.78;72.77
64961;SHT31;51487;52.266;10.542;2023-05-10T15:27:15;18.88;73.54
64961;SHT31;51487;52.266;10.542;2023-05-10T15:29:40;18.91;73.56
64961;SHT31;51487;52.266;10.542;2023-05-10T15:32:06;19.03;73.55